Time;durP1;ratioP1;P1;durP2;ratioP2;P2;SDS_P1;SDS_P2;PMS_P1;PMS_P2;Temp;Humidity;BMP_temperature;BMP_pressure;BME280_temperature;BME280_humidity;BME280_pressure;Samples;Min_cycle;Max_cycle;Signal;HPM_P1;HPM_P2
2021/12/07 00:00:31;;;;;;;21.03;14.03;;;;;;;0.63;80.47;97258.16;6371252;27;20215;-69
2021/12/07 00:03:34;;;;;;;20.33;12.93;;;;;;;0.60;80.42;97260.88;6370735;27;20592;-69
2021/12/07 00:06:39;;;;;;;16.57;12.53;;;;;;;0.56;80.53;97248.97;6353359;27;20200;-72
2021/12/07 00:09:44;;;;;;;17.80;12.27;;;;;;;0.53;80.44;97249.13;6382341;27;20213;-70
2021/12/07 00:12:48;;;;;;;17.70;12.90;;;;;;;0.50;80.36;97246.66;6370835;27;20389;-72
2021/12/07 00:15:50;;;;;;;19.97;12.83;;;;;;;0.49;80.51;97250.19;6352510;27;20200;-68
2021/12/07 00:18:53;;;;;;;18.60;12.17;;;;;;;0.50;80.80;97248.44;6370987;27;20196;-70
2021/12/07 00:21:56;;;;;;;16.60;12.23;;;;;;;0.48;80.81;97245.91;6370524;27;20706;-68
2021/12/07 00:24:58;;;;;;;15.33;11.40;;;;;;;0.45;80.17;97251.25;6345205;28;20537;-70
2021/12/07 00:28:01;;;;;;;16.57;12.30;;;;;;;0.44;80.60;97252.16;6366991;27;20199;-69
2021/12/07 00:31:25;;;;;;;16.60;11.20;;;;;;;0.44;80.37;97254.75;6351439;27;20197;-69
2021/12/07 00:37:38;;;;;;;15.93;11.80;;;;;;;0.41;79.89;97252.28;6358744;27;20291;-69
2021/12/07 00:40:42;;;;;;;17.97;12.50;;;;;;;0.38;80.06;97254.19;6364252;27;20208;-71
2021/12/07 00:43:44;;;;;;;18.97;11.93;;;;;;;0.35;80.12;97242.19;6370695;27;20192;-68
2021/12/07 00:46:48;;;;;;;18.13;13.30;;;;;;;0.32;79.84;97238.00;6351764;27;20192;-69
2021/12/07 00:49:50;;;;;;;17.87;13.07;;;;;;;0.33;80.34;97237.06;6351198;27;20202;-70
2021/12/07 00:52:54;;;;;;;16.83;12.53;;;;;;;0.33;80.38;97231.03;6351995;27;20275;-69
2021/12/07 00:55:59;;;;;;;16.63;12.60;;;;;;;0.34;80.68;97233.56;6351370;27;20197;-69
2021/12/07 00:59:03;;;;;;;18.40;13.10;;;;;;;0.33;80.22;97226.69;6334625;27;20586;-68
2021/12/07 01:02:05;;;;;;;15.57;12.13;;;;;;;0.33;80.44;97220.66;6333993;27;20709;-69
2021/12/07 01:05:16;;;;;;;20.47;13.50;;;;;;;0.28;80.29;97225.25;6369580;27;20199;-69
2021/12/07 01:09:14;;;;;;;18.47;13.37;;;;;;;0.28;80.45;97220.06;6382513;27;20199;-69
2021/12/07 01:25:07;;;;;;;18.40;12.00;;;;;;;0.33;80.39;97223.25;6369259;27;20268;-71
2021/12/07 01:28:29;;;;;;;21.10;13.97;;;;;;;0.33;80.41;97220.66;6369089;27;20276;-69
2021/12/07 01:31:51;;;;;;;17.53;13.50;;;;;;;0.28;80.63;97209.69;6350538;27;20275;-69
2021/12/07 01:59:31;;;;;;;16.20;12.33;;;;;;;0.23;80.77;97204.69;6368920;28;20580;-68
2021/12/07 02:01:15;;;;;;;19.27;14.10;;;;;;;0.24;80.62;97205.53;6350194;28;20227;-69
2021/12/07 02:04:17;;;;;;;17.97;13.07;;;;;;;0.24;80.41;97202.94;6350460;28;20192;-71
2021/12/07 02:07:20;;;;;;;19.83;12.77;;;;;;;0.25;80.46;97202.03;6354970;27;20317;-69
2021/12/07 02:10:27;;;;;;;17.73;12.33;;;;;;;0.27;80.44;97202.81;6359264;28;20231;-69
2021/12/07 02:16:39;;;;;;;20.37;13.90;;;;;;;0.28;80.92;97196.69;6368903;28;20188;-69
2021/12/07 02:19:41;;;;;;;15.47;11.50;;;;;;;0.29;80.83;97194.03;6332997;28;20192;-70
2021/12/07 02:22:44;;;;;;;17.77;13.33;;;;;;;0.31;80.95;97201.72;6368433;28;20200;-69
2021/12/07 02:25:48;;;;;;;19.00;13.47;;;;;;;0.31;80.85;97191.34;6350448;28;20188;-70
2021/12/07 02:28:52;;;;;;;16.10;12.27;;;;;;;0.30;80.62;97179.31;6368791;28;20634;-69
2021/12/07 02:31:57;;;;;;;20.10;14.57;;;;;;;0.31;81.06;97175.78;6349369;28;20249;-68
2021/12/07 02:35:00;;;;;;;24.83;14.90;;;;;;;0.27;81.13;97172.50;6350113;28;20588;-69
2021/12/07 02:38:05;;;;;;;19.27;14.43;;;;;;;0.25;80.83;97169.13;6360697;27;20279;-69
2021/12/07 02:41:10;;;;;;;23.40;15.77;;;;;;;0.23;81.08;97177.91;6361074;28;20212;-69
2021/12/07 02:44:13;;;;;;;22.53;14.90;;;;;;;0.21;80.71;97179.72;6349724;28;20196;-69
2021/12/07 02:47:16;;;;;;;20.60;14.03;;;;;;;0.17;80.93;97180.78;6349584;28;20203;-68
2021/12/07 02:50:19;;;;;;;22.03;15.23;;;;;;;0.14;81.00;97175.75;6350196;28;20223;-68
2021/12/07 02:53:26;;;;;;;20.80;14.60;;;;;;;0.11;80.89;97178.47;6370959;27;20184;-69
2021/12/07 02:56:30;;;;;;;22.17;14.40;;;;;;;0.12;80.61;97187.94;6354604;27;20203;-69
2021/12/07 02:59:33;;;;;;;21.00;14.77;;;;;;;0.06;80.77;97180.44;6354833;27;20196;-68
2021/12/07 03:02:43;;;;;;;19.70;13.67;;;;;;;0.08;80.75;97181.22;6354299;27;20572;-69
2021/12/07 03:06:00;;;;;;;23.37;14.73;;;;;;;0.08;80.81;97171.69;6354331;27;20246;-69
2021/12/07 03:28:58;;;;;;;21.53;14.77;;;;;;;0.02;80.51;97174.56;6354044;27;20229;-69
2021/12/07 03:32:02;;;;;;;24.27;14.50;;;;;;;0.00;80.34;97179.00;6353825;27;20594;-69
2021/12/07 03:35:06;;;;;;;19.00;13.47;;;;;;;-0.02;80.02;97184.25;6353189;27;20537;-68
2021/12/07 03:38:10;;;;;;;20.33;13.07;;;;;;;0.02;80.90;97195.31;6364774;27;20248;-68
2021/12/07 03:41:12;;;;;;;18.83;13.33;;;;;;;0.02;80.34;97194.47;6353465;27;20242;-70
2021/12/07 03:44:15;;;;;;;20.03;14.10;;;;;;;-0.03;80.33;97187.75;6352942;27;20196;-69
2021/12/07 03:47:17;;;;;;;19.27;12.40;;;;;;;-0.05;80.15;97189.56;6371945;27;20184;-69
2021/12/07 03:50:21;;;;;;;18.80;13.87;;;;;;;-0.07;80.26;97188.78;6336542;27;20192;-69
2021/12/07 03:53:25;;;;;;;21.40;14.20;;;;;;;-0.09;80.25;97189.75;6370764;27;20610;-68
2021/12/07 03:56:28;;;;;;;20.80;14.63;;;;;;;-0.11;80.30;97184.69;6371461;27;20671;-69
2021/12/07 03:59:31;;;;;;;21.40;14.60;;;;;;;-0.11;80.00;97194.19;6371418;27;20192;-69
2021/12/07 04:02:39;;;;;;;23.20;14.77;;;;;;;-0.16;80.22;97199.59;6352582;27;20633;-69
2021/12/07 04:05:49;;;;;;;19.67;13.33;;;;;;;-0.16;80.05;97199.59;6352063;27;20185;-69
2021/12/07 04:08:55;;;;;;;22.63;14.83;;;;;;;-0.19;80.16;97194.53;6382033;27;20199;-69
2021/12/07 04:11:57;;;;;;;21.70;14.80;;;;;;;-0.16;79.85;97203.94;6355347;27;20209;-69
2021/12/07 04:15:00;;;;;;;22.50;15.30;;;;;;;-0.15;80.16;97203.03;6335627;27;20679;-70
2021/12/07 04:18:04;;;;;;;23.67;15.07;;;;;;;-0.15;80.37;97208.22;6370666;27;20185;-69
2021/12/07 04:21:06;;;;;;;21.20;15.20;;;;;;;-0.15;80.39;97198.69;6370910;27;20204;-68
2021/12/07 04:24:08;;;;;;;21.60;14.27;;;;;;;-0.13;80.27;97202.06;6352160;27;20201;-69
2021/12/07 04:27:10;;;;;;;22.57;14.97;;;;;;;-0.12;80.23;97200.31;6370835;27;20313;-70
2021/12/07 04:30:30;;;;;;;24.70;16.10;;;;;;;-0.14;79.97;97205.56;6335603;27;20713;-68
2021/12/07 04:33:33;;;;;;;25.00;16.20;;;;;;;-0.16;80.26;97196.16;6352116;27;20381;-69
2021/12/07 04:36:36;;;;;;;24.87;16.37;;;;;;;-0.18;80.40;97198.81;6370632;27;20701;-70
2021/12/07 04:39:38;;;;;;;23.87;15.40;;;;;;;-0.18;80.17;97200.56;6371236;27;20200;-69
2021/12/07 04:42:41;;;;;;;20.43;15.03;;;;;;;-0.16;80.30;97193.56;6351582;27;20710;-70
2021/12/07 04:49:19;;;;;;;26.17;16.73;;;;;;;-0.14;79.65;97204.72;6370350;27;20195;-69
2021/12/07 04:58:45;;;;;;;25.03;16.67;;;;;;;-0.19;79.36;97201.47;6370319;27;20184;-69
2021/12/07 05:01:47;;;;;;;22.53;15.70;;;;;;;-0.20;79.72;97197.22;6334283;27;20579;-69
2021/12/07 05:04:49;;;;;;;23.43;16.10;;;;;;;-0.21;79.59;97191.19;6351093;27;20196;-69
2021/12/07 05:07:54;;;;;;;25.30;16.83;;;;;;;-0.22;79.62;97191.25;6378797;27;20309;-70
2021/12/07 05:14:16;;;;;;;24.30;15.50;;;;;;;-0.19;79.23;97199.72;6369314;27;20227;-69
2021/12/07 05:17:41;;;;;;;21.70;14.03;;;;;;;-0.17;79.55;97197.91;6351232;27;20193;-71
2021/12/07 05:24:09;;;;;;;27.83;17.40;;;;;;;-0.16;79.72;97199.59;6350448;27;20265;-69
2021/12/07 05:40:36;;;;;;;23.73;14.90;;;;;;;-0.22;79.11;97193.84;6380713;27;20559;-69
2021/12/07 05:43:38;;;;;;;24.43;15.60;;;;;;;-0.23;79.07;97202.53;6350400;27;20204;-69
2021/12/07 05:46:40;;;;;;;23.10;15.33;;;;;;;-0.25;79.31;97207.78;6368924;27;20716;-70
2021/12/07 05:49:43;;;;;;;22.20;15.13;;;;;;;-0.23;79.29;97193.00;6369137;27;20667;-69
2021/12/07 05:52:45;;;;;;;23.20;15.90;;;;;;;-0.23;79.37;97199.94;6369173;27;20186;-69
2021/12/07 05:55:47;;;;;;;24.07;15.80;;;;;;;-0.24;79.22;97200.84;6350241;28;20584;-69
2021/12/07 05:58:50;;;;;;;24.57;15.83;;;;;;;-0.23;79.32;97205.13;6369144;28;20696;-69
2021/12/07 06:01:53;;;;;;;22.43;14.97;;;;;;;-0.23;79.19;97224.13;6368929;28;20211;-71
2021/12/07 06:04:55;;;;;;;24.60;15.73;;;;;;;-0.22;79.60;97218.03;6368809;28;20234;-73
2021/12/07 06:07:57;;;;;;;22.63;15.03;;;;;;;-0.20;79.08;97220.56;6378398;27;20200;-71
2021/12/07 06:11:00;;;;;;;22.17;13.83;;;;;;;-0.21;79.05;97214.53;6386245;27;20269;-71
2021/12/07 06:14:02;;;;;;;21.87;14.27;;;;;;;-0.20;78.83;97213.59;6368541;28;20708;-69
2021/12/07 06:17:05;;;;;;;21.43;14.73;;;;;;;-0.20;79.50;97208.41;6368725;28;20218;-70
2021/12/07 06:20:07;;;;;;;26.73;16.53;;;;;;;-0.18;79.44;97216.13;6368494;28;20592;-70
2021/12/07 06:23:12;;;;;;;20.77;14.23;;;;;;;-0.17;79.22;97212.63;6368480;28;20718;-70
2021/12/07 06:26:14;;;;;;;23.53;16.07;;;;;;;-0.19;79.19;97217.88;6350424;27;20610;-72
2021/12/07 06:29:17;;;;;;;21.90;14.60;;;;;;;-0.23;78.48;97218.94;6373460;27;20200;-70
2021/12/07 06:32:19;;;;;;;24.97;16.00;;;;;;;-0.23;79.01;97220.69;6373422;27;20644;-70
2021/12/07 06:35:21;;;;;;;23.07;15.00;;;;;;;-0.26;78.70;97219.06;6355173;27;20636;-70
2021/12/07 06:38:29;;;;;;;22.03;15.20;;;;;;;-0.29;78.46;97214.00;6362180;27;20705;-69
2021/12/07 06:41:31;;;;;;;19.63;13.67;;;;;;;-0.32;78.88;97211.56;6354762;27;20574;-72
2021/12/07 06:44:33;;;;;;;24.17;15.00;;;;;;;-0.32;79.05;97213.31;6372997;27;20189;-70
2021/12/07 06:47:36;;;;;;;19.13;12.63;;;;;;;-0.33;78.94;97216.81;6337603;27;20201;-70
2021/12/07 06:50:38;;;;;;;21.00;13.83;;;;;;;-0.32;79.21;97213.31;6373121;27;20667;-69
2021/12/07 06:53:41;;;;;;;21.40;13.37;;;;;;;-0.34;79.60;97213.38;6354253;27;20575;-70
2021/12/07 06:56:43;;;;;;;22.70;14.83;;;;;;;-0.40;79.58;97208.47;6354499;27;20188;-69
2021/12/07 06:59:46;;;;;;;24.13;15.50;;;;;;;-0.46;79.65;97221.69;6353972;27;20292;-69
2021/12/07 07:02:48;;;;;;;21.70;14.27;;;;;;;-0.47;79.99;97226.03;6372427;27;20683;-69
2021/12/07 07:05:50;;;;;;;24.10;15.03;;;;;;;-0.45;79.88;97232.00;6372002;27;20659;-69
2021/12/07 07:08:53;;;;;;;22.57;14.30;;;;;;;-0.38;79.93;97238.59;6369471;27;20214;-69
2021/12/07 07:11:55;;;;;;;20.77;14.27;;;;;;;-0.28;79.67;97238.19;6371923;27;20197;-70
2021/12/07 07:14:57;;;;;;;23.80;14.27;;;;;;;-0.28;79.83;97233.00;6371683;27;20188;-69
2021/12/07 07:18:00;;;;;;;19.97;13.63;;;;;;;-0.26;79.90;97234.63;6353657;27;20567;-70
2021/12/07 07:21:03;;;;;;;24.43;15.93;;;;;;;-0.20;80.08;97233.53;6353790;27;20652;-69
2021/12/07 07:24:06;;;;;;;22.87;14.43;;;;;;;-0.15;80.06;97240.16;6371936;27;20205;-69
2021/12/07 07:27:09;;;;;;;20.57;14.23;;;;;;;-0.07;79.73;97240.66;6371446;27;20188;-70
2021/12/07 07:30:14;;;;;;;22.47;14.47;;;;;;;0.04;80.11;97247.97;6372611;27;20750;-71
2021/12/07 07:33:16;;;;;;;21.37;13.80;;;;;;;0.15;79.93;97257.84;6371821;27;20192;-70
2021/12/07 07:36:18;;;;;;;23.73;16.23;;;;;;;0.19;79.73;97252.47;6371232;27;20188;-70
2021/12/07 07:39:20;;;;;;;20.70;13.93;;;;;;;0.29;79.17;97245.94;6356437;27;20222;-69
2021/12/07 07:42:22;;;;;;;25.17;15.70;;;;;;;0.36;78.59;97247.31;6372271;27;20208;-69
2021/12/07 07:45:46;;;;;;;24.37;15.57;;;;;;;0.32;78.76;97248.38;6355928;27;20201;-69
2021/12/07 07:48:50;;;;;;;24.87;15.80;;;;;;;0.27;78.07;97250.34;6353400;27;20557;-70
2021/12/07 07:51:52;;;;;;;23.53;16.03;;;;;;;0.23;77.31;97242.75;6371006;27;20203;-71
2021/12/07 07:54:54;;;;;;;22.40;15.77;;;;;;;0.17;77.02;97250.84;6371358;27;20203;-70
2021/12/07 07:57:57;;;;;;;23.80;15.83;;;;;;;0.10;77.96;97246.84;6352565;27;20196;-69
2021/12/07 08:01:00;;;;;;;22.33;14.87;;;;;;;0.07;77.72;97252.16;6370812;27;20199;-70
2021/12/07 08:04:04;;;;;;;23.07;15.90;;;;;;;0.14;77.63;97253.56;6371061;27;20233;-69
2021/12/07 08:07:06;;;;;;;25.07;15.33;;;;;;;0.20;77.76;97242.94;6354848;27;20258;-70
2021/12/07 08:10:09;;;;;;;21.00;13.70;;;;;;;0.27;77.88;97250.34;6372425;27;20215;-69
2021/12/07 08:13:11;;;;;;;19.43;13.30;;;;;;;0.40;77.53;97253.19;6352225;27;20235;-71
2021/12/07 08:16:16;;;;;;;20.13;14.87;;;;;;;0.47;76.26;97256.38;6370385;27;20534;-70
2021/12/07 08:19:18;;;;;;;23.13;15.33;;;;;;;0.61;76.29;97262.56;6370263;27;20555;-70
2021/12/07 08:22:20;;;;;;;23.00;15.40;;;;;;;0.63;75.63;97268.53;6370729;27;20396;-70
2021/12/07 08:25:23;;;;;;;25.70;15.93;;;;;;;0.59;75.32;97260.97;6352460;27;20187;-70
2021/12/07 08:28:25;;;;;;;20.53;14.60;;;;;;;0.64;75.35;97265.03;6370369;27;20189;-69
2021/12/07 08:31:28;;;;;;;23.27;14.83;;;;;;;0.67;75.43;97264.06;6369898;27;20223;-69
2021/12/07 08:34:30;;;;;;;21.33;14.70;;;;;;;0.73;75.10;97258.56;6370068;27;20188;-69
2021/12/07 08:37:33;;;;;;;20.87;14.33;;;;;;;0.81;75.24;97260.78;6357865;27;20208;-69
2021/12/07 08:40:39;;;;;;;22.87;14.57;;;;;;;0.93;74.68;97255.84;6357101;27;20193;-69
2021/12/07 08:43:41;;;;;;;21.63;14.27;;;;;;;0.99;74.17;97260.75;6351190;27;20201;-69
2021/12/07 08:46:43;;;;;;;21.13;14.13;;;;;;;1.10;74.55;97268.00;6370255;27;20695;-69
2021/12/07 08:49:46;;;;;;;21.67;14.57;;;;;;;1.17;73.56;97278.94;6350414;27;20196;-69
2021/12/07 08:52:56;;;;;;;19.37;12.93;;;;;;;1.25;73.10;97275.03;6352493;27;20195;-69
2021/12/07 09:02:43;;;;;;;19.37;13.30;;;;;;;1.65;72.28;97267.84;6369729;27;20189;-70
2021/12/07 09:05:45;;;;;;;18.90;12.77;;;;;;;1.65;72.02;97263.47;6351185;27;20648;-69
2021/12/07 09:08:47;;;;;;;17.63;12.67;;;;;;;1.68;72.56;97260.72;6367884;27;20224;-70
2021/12/07 09:11:49;;;;;;;19.13;13.20;;;;;;;1.68;72.09;97260.72;6372638;27;20208;-69
2021/12/07 09:14:53;;;;;;;20.60;14.07;;;;;;;1.73;71.95;97256.09;6369079;27;20197;-70
2021/12/07 09:17:55;;;;;;;19.27;12.80;;;;;;;1.73;72.30;97257.88;6369191;27;20195;-69
2021/12/07 09:20:59;;;;;;;19.90;13.80;;;;;;;1.78;71.72;97253.28;6369320;27;20275;-69
2021/12/07 09:24:02;;;;;;;17.23;12.07;;;;;;;1.54;71.86;97259.72;6368937;27;20239;-71
2021/12/07 09:27:04;;;;;;;18.27;12.27;;;;;;;1.69;72.32;97258.97;6350904;27;20188;-70
2021/12/07 09:30:09;;;;;;;19.83;12.77;;;;;;;1.88;71.95;97264.88;6368649;27;20189;-69
2021/12/07 09:33:11;;;;;;;17.67;12.57;;;;;;;2.12;70.99;97263.56;6369049;27;20183;-71
2021/12/07 09:36:14;;;;;;;19.33;13.57;;;;;;;2.20;70.20;97268.38;6350651;27;20200;-71
2021/12/07 09:39:18;;;;;;;17.47;12.40;;;;;;;2.30;70.70;97271.31;6368710;27;20659;-70
2021/12/07 09:42:20;;;;;;;19.43;12.73;;;;;;;2.25;69.58;97260.31;6368529;27;20204;-69
2021/12/07 09:45:30;;;;;;;20.60;13.93;;;;;;;2.38;70.12;97269.16;6368916;27;20200;-69
2021/12/07 09:48:34;;;;;;;17.30;12.60;;;;;;;2.56;69.77;97255.13;6368700;27;20660;-72
2021/12/07 09:51:39;;;;;;;19.07;12.77;;;;;;;2.72;68.66;97257.72;6368183;27;20574;-69
2021/12/07 09:54:41;;;;;;;16.90;11.87;;;;;;;2.96;68.68;97251.97;6350171;28;20200;-70
2021/12/07 09:57:43;;;;;;;18.17;12.87;;;;;;;3.12;67.70;97251.94;6350348;28;20192;-70
2021/12/07 10:00:47;;;;;;;19.37;12.40;;;;;;;2.75;68.56;97262.75;6368464;27;20185;-70
2021/12/07 10:03:50;;;;;;;18.50;12.20;;;;;;;2.54;69.07;97251.75;6354406;27;20208;-69
2021/12/07 10:06:52;;;;;;;17.33;12.17;;;;;;;2.51;69.40;97267.56;6374912;27;20197;-69
2021/12/07 10:09:54;;;;;;;21.30;12.90;;;;;;;2.41;70.18;97269.81;6362042;27;20237;-68
2021/12/07 10:12:57;;;;;;;17.97;11.83;;;;;;;2.36;70.15;97261.44;6373551;27;20229;-69
2021/12/07 10:16:04;;;;;;;21.13;13.50;;;;;;;2.28;70.27;97271.44;6373725;27;20220;-69
2021/12/07 10:19:06;;;;;;;21.03;13.17;;;;;;;2.23;70.91;97260.41;6354750;27;20188;-68
2021/12/07 10:22:11;;;;;;;18.53;12.70;;;;;;;2.28;71.65;97265.38;6372967;27;20269;-70
2021/12/07 10:25:25;;;;;;;18.17;12.87;;;;;;;2.27;70.99;97266.28;6373513;27;20161;-69
2021/12/07 10:28:32;;;;;;;17.13;12.10;;;;;;;2.34;71.43;97268.47;6355159;27;20575;-69
2021/12/07 10:31:44;;;;;;;16.97;11.63;;;;;;;2.27;71.87;97261.09;6354308;27;20192;-69
2021/12/07 10:34:47;;;;;;;16.73;11.97;;;;;;;2.26;71.57;97251.59;6373076;27;20192;-70
2021/12/07 10:38:09;;;;;;;19.53;12.50;;;;;;;2.20;71.50;97244.94;6381568;27;20200;-69
2021/12/07 10:41:16;;;;;;;17.27;12.17;;;;;;;2.23;71.80;97248.22;6377444;27;20182;-69
2021/12/07 10:44:27;;;;;;;18.20;11.77;;;;;;;2.25;71.19;97257.72;6372823;27;20211;-70
2021/12/07 10:47:29;;;;;;;17.53;10.90;;;;;;;2.11;71.48;97254.09;6372800;27;20195;-67
2021/12/07 10:50:38;;;;;;;17.77;12.83;;;;;;;2.25;71.24;97258.56;6372861;27;20193;-70
2021/12/07 10:53:51;;;;;;;15.90;10.33;;;;;;;2.39;70.02;97250.84;6372411;27;20185;-67
2021/12/07 10:56:55;;;;;;;18.47;11.73;;;;;;;2.53;70.02;97255.28;6372615;27;20292;-70
2021/12/07 11:00:12;;;;;;;15.47;11.17;;;;;;;2.57;70.52;97254.22;6353874;27;20690;-68
2021/12/07 11:03:19;;;;;;;17.97;11.87;;;;;;;2.40;70.93;97259.47;6372229;27;20201;-70
2021/12/07 11:06:22;;;;;;;16.17;10.70;;;;;;;2.44;71.32;97248.81;6372283;27;20169;-69
2021/12/07 11:09:24;;;;;;;15.57;9.93;;;;;;;2.38;69.95;97262.19;6394100;27;20836;-69
2021/12/07 11:12:32;;;;;;;14.90;10.43;;;;;;;2.41;70.40;97251.59;6374710;27;20224;-69
2021/12/07 11:15:37;;;;;;;14.27;10.70;;;;;;;2.47;70.37;97255.63;6372035;27;20209;-69
2021/12/07 11:18:44;;;;;;;14.70;10.00;;;;;;;2.50;70.51;97261.50;6372188;27;20196;-69
2021/12/07 11:21:50;;;;;;;14.87;10.47;;;;;;;2.54;70.35;97255.22;6353319;27;20512;-69
2021/12/07 11:24:53;;;;;;;15.87;11.47;;;;;;;2.43;70.67;97256.72;6353647;27;20815;-69
2021/12/07 11:31:33;;;;;;;18.77;12.10;;;;;;;2.09;72.93;97260.31;6371282;27;20658;-70
2021/12/07 11:34:40;;;;;;;18.67;11.80;;;;;;;2.10;72.83;97252.41;6371671;27;21070;-69
2021/12/07 11:37:44;;;;;;;16.40;11.90;;;;;;;2.09;73.66;97249.91;6375782;27;20192;-69
2021/12/07 11:40:46;;;;;;;17.80;13.37;;;;;;;2.04;73.33;97247.53;6352664;27;20648;-70
2021/12/07 11:43:53;;;;;;;19.93;12.90;;;;;;;2.06;73.65;97242.25;6371464;27;20204;-70
2021/12/07 11:46:56;;;;;;;18.07;12.40;;;;;;;2.11;73.55;97228.06;6353171;27;20745;-69
2021/12/07 11:50:09;;;;;;;16.50;12.63;;;;;;;2.33;73.72;97232.09;6371132;27;20188;-70
2021/12/07 11:53:21;;;;;;;18.10;13.13;;;;;;;2.44;73.49;97237.56;6335841;27;20189;-70
2021/12/07 11:56:23;;;;;;;20.30;13.30;;;;;;;2.42;73.27;97236.81;6371813;27;20654;-71
2021/12/07 11:59:26;;;;;;;16.33;11.97;;;;;;;2.29;73.62;97239.25;6370900;27;20290;-70
2021/12/07 12:02:28;;;;;;;19.90;13.63;;;;;;;2.36;74.18;97242.38;6370671;27;20238;-69
2021/12/07 12:05:31;;;;;;;15.00;11.37;;;;;;;2.33;73.39;97227.75;6352523;27;20654;-69
2021/12/07 12:08:33;;;;;;;15.97;11.57;;;;;;;2.47;73.74;97240.00;6383264;27;20668;-68
2021/12/07 12:11:54;;;;;;;13.27;10.17;;;;;;;2.58;72.68;97242.88;6351734;27;20716;-70
2021/12/07 12:15:03;;;;;;;13.37;9.67;;;;;;;2.72;72.32;97237.72;6352483;27;20192;-66
2021/12/07 12:18:19;;;;;;;11.90;8.10;;;;;;;2.96;71.68;97238.09;6351681;27;20188;-67
2021/12/07 12:21:38;;;;;;;9.30;7.50;;;;;;;3.17;71.65;97231.66;6370151;27;20680;-69
2021/12/07 12:24:48;;;;;;;9.83;6.47;;;;;;;3.07;71.04;97233.13;6369594;27;20641;-69
2021/12/07 12:27:53;;;;;;;8.57;6.20;;;;;;;2.90;71.64;97228.84;6370571;27;20197;-71
2021/12/07 12:30:55;;;;;;;5.97;4.67;;;;;;;2.74;71.73;97235.88;6370283;27;20245;-67
2021/12/07 12:33:57;;;;;;;6.27;4.87;;;;;;;2.74;71.45;97227.22;6370184;27;20201;-69
2021/12/07 12:37:07;;;;;;;7.87;5.80;;;;;;;2.71;71.41;97236.03;6353484;27;20184;-66
2021/12/07 12:40:21;;;;;;;6.23;4.77;;;;;;;2.65;72.58;97241.59;6387865;27;20567;-70
2021/12/07 12:43:54;;;;;;;6.00;4.33;;;;;;;2.58;72.36;97232.44;6369768;27;20197;-67
2021/12/07 12:46:59;;;;;;;6.53;4.70;;;;;;;2.42;72.17;97227.22;6334746;27;20202;-68
2021/12/07 12:50:18;;;;;;;5.93;4.60;;;;;;;2.57;72.36;97215.97;6369604;27;20188;-70
2021/12/07 12:53:26;;;;;;;5.80;4.27;;;;;;;2.66;72.56;97216.38;6369468;27;20189;-66
2021/12/07 12:56:30;;;;;;;4.57;3.93;;;;;;;2.82;71.56;97210.22;6370031;27;20647;-68
2021/12/07 12:59:38;;;;;;;5.63;4.20;;;;;;;3.05;70.59;97208.91;6369625;27;20277;-68
2021/12/07 13:02:40;;;;;;;6.63;3.60;;;;;;;3.10;69.68;97212.06;6350615;27;20285;-67
2021/12/07 13:05:45;;;;;;;6.60;4.27;;;;;;;3.09;70.87;97207.81;6369456;27;20693;-68
2021/12/07 13:08:51;;;;;;;5.33;4.23;;;;;;;2.89;70.44;97205.50;6369569;27;20685;-71
2021/12/07 13:12:02;;;;;;;6.10;4.40;;;;;;;2.75;71.57;97202.84;6368751;27;20730;-67
2021/12/07 13:15:15;;;;;;;6.30;4.40;;;;;;;2.71;71.43;97207.38;6369253;27;20189;-68
2021/12/07 13:18:23;;;;;;;6.00;4.43;;;;;;;2.63;71.14;97204.38;6351170;27;20665;-68
2021/12/07 13:21:27;;;;;;;4.80;4.10;;;;;;;2.46;71.81;97223.56;6369384;27;20322;-67
2021/12/07 13:24:38;;;;;;;5.03;3.93;;;;;;;2.37;71.93;97229.25;6369031;27;20281;-67
2021/12/07 13:28:02;;;;;;;5.70;4.07;;;;;;;2.30;72.75;97232.25;6368971;27;20181;-69
2021/12/07 13:31:18;;;;;;;4.90;3.47;;;;;;;2.27;72.65;97224.66;6368890;27;20198;-67
2021/12/07 13:34:25;;;;;;;5.27;4.10;;;;;;;2.16;73.28;97231.28;6369262;27;20165;-68
2021/12/07 13:37:49;;;;;;;5.07;3.50;;;;;;;2.07;73.20;97223.97;6374430;27;20209;-70
2021/12/07 13:41:13;;;;;;;5.37;3.83;;;;;;;2.13;73.67;97226.22;6368928;27;20207;-67
2021/12/07 13:44:16;;;;;;;4.33;3.73;;;;;;;2.14;73.87;97230.50;6350357;27;20250;-69
2021/12/07 13:47:23;;;;;;;5.20;4.00;;;;;;;2.05;73.29;97231.00;6368561;27;20196;-69
2021/12/07 13:50:29;;;;;;;4.63;3.43;;;;;;;2.04;73.72;97225.88;6369441;27;20265;-68
2021/12/07 13:53:34;;;;;;;3.83;3.27;;;;;;;2.01;74.63;97231.22;6367852;27;20617;-69
2021/12/07 13:56:40;;;;;;;4.60;3.47;;;;;;;2.02;74.22;97236.38;6368813;27;20231;-72
2021/12/07 13:59:42;;;;;;;4.37;3.83;;;;;;;1.98;74.02;97237.47;6350456;28;20193;-69
2021/12/07 14:02:49;;;;;;;4.63;3.60;;;;;;;1.97;74.24;97245.34;6368277;28;20229;-69
2021/12/07 14:05:51;;;;;;;4.33;3.70;;;;;;;1.98;74.52;97250.47;6368546;28;20188;-68
2021/12/07 14:09:03;;;;;;;4.10;3.47;;;;;;;1.97;74.83;97256.59;6368063;27;20582;-69
2021/12/07 14:12:05;;;;;;;4.07;3.37;;;;;;;1.92;75.10;97258.59;6342481;28;20281;-68
2021/12/07 14:15:16;;;;;;;4.17;3.70;;;;;;;1.88;74.88;97256.25;6365226;28;20193;-69
2021/12/07 14:18:26;;;;;;;5.03;4.00;;;;;;;1.87;75.35;97255.41;6350182;28;20189;-69
2021/12/07 14:21:29;;;;;;;4.70;3.73;;;;;;;1.83;75.92;97257.31;6349857;28;20265;-68
2021/12/07 14:24:31;;;;;;;4.47;3.87;;;;;;;1.77;75.89;97267.22;6332945;28;20220;-70
2021/12/07 14:27:34;;;;;;;4.50;3.87;;;;;;;1.74;75.56;97263.00;6368203;28;20345;-68
2021/12/07 14:30:36;;;;;;;4.23;3.67;;;;;;;1.73;76.14;97263.91;6349987;28;20197;-69
2021/12/07 14:34:04;;;;;;;4.13;3.73;;;;;;;1.73;76.17;97265.66;6349417;28;20193;-69
2021/12/07 14:37:07;;;;;;;4.63;4.07;;;;;;;1.72;76.26;97261.38;6370346;27;20686;-69
2021/12/07 14:40:10;;;;;;;4.37;3.73;;;;;;;1.73;76.38;97263.06;6388431;27;20192;-71
2021/12/07 14:43:12;;;;;;;4.27;3.70;;;;;;;1.70;76.67;97261.47;6368197;28;20688;-70
2021/12/07 14:46:17;;;;;;;5.37;4.27;;;;;;;1.70;76.21;97255.41;6350019;28;20973;-69
2021/12/07 14:49:21;;;;;;;5.00;4.10;;;;;;;1.66;76.66;97256.50;6371534;27;20261;-69
2021/12/07 14:52:26;;;;;;;3.67;3.37;;;;;;;1.64;76.68;97256.59;6373027;27;20195;-69
2021/12/07 14:55:28;;;;;;;4.83;3.80;;;;;;;1.63;76.57;97254.91;6372827;27;20656;-69
2021/12/07 14:58:35;;;;;;;3.80;3.40;;;;;;;1.65;76.47;97249.63;6355328;27;20185;-73
2021/12/07 15:01:45;;;;;;;4.57;3.73;;;;;;;1.64;76.63;97250.53;6372722;27;20264;-69
2021/12/07 15:05:00;;;;;;;7.23;4.60;;;;;;;1.64;76.84;97253.16;6372624;27;20679;-69
2021/12/07 15:08:05;;;;;;;4.67;3.97;;;;;;;1.65;76.60;97252.22;6381132;27;20682;-69
2021/12/07 15:11:08;;;;;;;5.60;4.77;;;;;;;1.64;76.89;97251.38;6372675;27;20612;-68
2021/12/07 15:14:13;;;;;;;4.67;3.90;;;;;;;1.63;77.08;97249.69;6353537;27;20703;-72
2021/12/07 15:17:19;;;;;;;6.73;4.43;;;;;;;1.62;77.38;97248.03;6372232;27;20735;-70
2021/12/07 15:20:21;;;;;;;6.27;4.50;;;;;;;1.62;77.38;97255.81;6366050;27;20197;-69
2021/12/07 15:23:25;;;;;;;5.67;4.40;;;;;;;1.62;77.79;97261.03;6371978;27;20687;-69
2021/12/07 15:26:29;;;;;;;4.93;4.40;;;;;;;1.63;77.55;97269.66;6372089;27;20672;-69
2021/12/07 15:29:34;;;;;;;5.13;4.40;;;;;;;1.63;77.77;97265.31;6371773;27;20562;-68
2021/12/07 15:32:36;;;;;;;7.27;5.37;;;;;;;1.62;78.04;97265.38;6372159;27;20207;-68
2021/12/07 15:35:40;;;;;;;5.57;4.80;;;;;;;1.62;77.96;97270.59;6353574;27;20563;-69
2021/12/07 15:38:43;;;;;;;5.20;4.70;;;;;;;1.62;78.19;97273.19;6388248;27;20644;-69
2021/12/07 15:41:49;;;;;;;5.47;4.47;;;;;;;1.62;78.01;97261.03;6373884;27;20787;-69
2021/12/07 15:45:03;;;;;;;6.83;4.93;;;;;;;1.63;78.17;97273.09;6353144;27;20590;-69
2021/12/07 15:48:06;;;;;;;6.43;5.37;;;;;;;1.63;78.14;97277.47;6372054;27;20193;-69
2021/12/07 15:51:09;;;;;;;6.00;4.60;;;;;;;1.63;77.74;97267.91;6371246;27;20681;-69
2021/12/07 15:54:11;;;;;;;7.43;5.03;;;;;;;1.65;78.25;97267.84;6371819;27;20188;-69
2021/12/07 15:57:13;;;;;;;4.60;4.20;;;;;;;1.65;78.02;97267.84;6353226;27;20191;-68
2021/12/07 16:00:22;;;;;;;5.80;4.80;;;;;;;1.66;78.01;97272.13;6369762;27;20681;-71
2021/12/07 16:03:28;;;;;;;5.33;4.40;;;;;;;1.65;77.86;97271.28;6370961;27;20306;-69
2021/12/07 16:06:30;;;;;;;5.30;4.57;;;;;;;1.65;77.94;97273.03;6371085;27;20655;-69